Time;durP1;ratioP1;P1;durP2;ratioP2;P2;SDS_P1;SDS_P2;PMS_P1;PMS_P2;Temp;Humidity;BMP_temperature;BMP_pressure;BME280_temperature;BME280_humidity;BME280_pressure;Samples;Min_cycle;Max_cycle;Signal;HPM_P1;HPM_P2
2021/12/29 00:00:30;;;;;;;1.73;0.73;;;10.20;88.10;;;;;;4960415;28;21033;-45
2021/12/29 00:03:00;;;;;;;2.40;0.60;;;10.20;87.90;;;;;;4944623;28;20884;-45
2021/12/29 00:05:29;;;;;;;3.77;1.13;;;10.30;87.90;;;;;;4941754;28;20499;-45
2021/12/29 00:07:56;;;;;;;2.40;0.50;;;10.30;87.90;;;;;;4945964;28;20460;-44
2021/12/29 00:10:23;;;;;;;1.63;0.70;;;10.30;87.50;;;;;;4944815;28;20959;-45
2021/12/29 00:12:53;;;;;;;1.27;0.50;;;10.30;87.80;;;;;;4944434;28;20978;-45
2021/12/29 00:15:25;;;;;;;0.60;0.53;;;10.30;87.50;;;;;;4925971;28;20835;-45
2021/12/29 00:17:53;;;;;;;1.23;0.93;;;10.40;87.50;;;;;;4942486;28;20473;-44
2021/12/29 00:20:24;;;;;;;6.20;3.87;;;10.40;87.70;;;;;;4943568;28;20490;-45
2021/12/29 00:22:51;;;;;;;2.10;1.27;;;10.40;88.00;;;;;;4942874;28;20912;-45
2021/12/29 00:25:17;;;;;;;1.73;0.87;;;10.40;88.00;;;;;;4947654;28;20471;-45
2021/12/29 00:27:44;;;;;;;1.37;0.70;;;10.40;88.10;;;;;;4943328;28;20465;-44
2021/12/29 00:30:13;;;;;;;3.00;0.57;;;10.40;88.20;;;;;;4943202;28;20463;-44
2021/12/29 00:32:40;;;;;;;0.93;0.60;;;10.40;88.20;;;;;;4944285;28;20476;-45
2021/12/29 00:35:11;;;;;;;1.60;0.50;;;10.40;88.10;;;;;;4962757;28;20509;-45
2021/12/29 00:37:38;;;;;;;0.40;0.40;;;10.40;88.00;;;;;;4958452;28;20475;-45
2021/12/29 00:40:06;;;;;;;2.40;0.80;;;10.40;87.80;;;;;;4958865;28;21090;-45
2021/12/29 00:42:32;;;;;;;0.90;0.50;;;10.40;87.60;;;;;;4954212;28;20460;-45
2021/12/29 00:45:00;;;;;;;0.63;0.43;;;10.40;87.70;;;;;;4966282;28;20483;-45
2021/12/29 00:47:32;;;;;;;0.43;0.43;;;10.40;87.60;;;;;;4960307;28;20467;-45
2021/12/29 00:50:06;;;;;;;0.80;0.70;;;10.40;87.40;;;;;;4942493;28;20478;-45
2021/12/29 00:52:33;;;;;;;0.97;0.40;;;10.40;87.40;;;;;;4945309;28;20462;-45
2021/12/29 00:55:00;;;;;;;0.70;0.40;;;10.40;87.50;;;;;;4941090;28;20471;-45
2021/12/29 00:57:27;;;;;;;3.03;0.63;;;10.40;87.50;;;;;;4944695;28;20554;-45
2021/12/29 00:59:54;;;;;;;0.60;0.43;;;10.40;87.30;;;;;;4942705;28;21057;-45
2021/12/29 01:02:20;;;;;;;1.30;0.57;;;10.40;87.20;;;;;;4923867;28;20988;-44
2021/12/29 01:04:47;;;;;;;1.77;1.00;;;10.40;87.20;;;;;;4943332;28;20562;-45
2021/12/29 01:07:15;;;;;;;0.73;0.50;;;10.40;87.60;;;;;;4944927;28;20891;-45
2021/12/29 01:09:42;;;;;;;0.40;0.40;;;10.40;87.90;;;;;;4943893;28;20475;-44
2021/12/29 01:12:09;;;;;;;0.50;0.50;;;10.50;87.80;;;;;;4944827;28;20633;-44
2021/12/29 01:14:41;;;;;;;1.00;0.43;;;10.50;87.60;;;;;;4940170;28;20980;-44
2021/12/29 01:17:08;;;;;;;2.00;0.53;;;10.50;87.70;;;;;;4942113;28;21006;-43
2021/12/29 01:19:35;;;;;;;0.50;0.40;;;10.50;87.90;;;;;;4940793;28;20495;-44
2021/12/29 01:22:03;;;;;;;0.73;0.60;;;10.50;88.10;;;;;;4939828;28;20471;-45
2021/12/29 01:24:31;;;;;;;1.60;0.40;;;10.50;88.30;;;;;;4944721;28;20470;-45
2021/12/29 01:26:59;;;;;;;0.90;0.67;;;10.50;88.40;;;;;;4941427;28;21227;-44
2021/12/29 01:29:26;;;;;;;0.93;0.83;;;10.40;88.30;;;;;;4942063;28;20618;-44
2021/12/29 01:31:53;;;;;;;1.93;0.60;;;10.50;88.10;;;;;;4940145;28;20466;-44
2021/12/29 01:34:20;;;;;;;0.93;0.73;;;10.50;88.20;;;;;;4944380;28;20466;-44
2021/12/29 01:36:47;;;;;;;0.67;0.67;;;10.50;88.10;;;;;;4956452;28;20471;-45
2021/12/29 01:39:16;;;;;;;0.60;0.60;;;10.40;88.00;;;;;;4943878;28;20480;-45
2021/12/29 01:41:45;;;;;;;0.70;0.70;;;10.40;87.80;;;;;;4958017;28;20521;-44
2021/12/29 01:44:14;;;;;;;3.90;0.83;;;10.40;87.50;;;;;;4940452;28;20459;-45
2021/12/29 01:46:43;;;;;;;1.67;0.80;;;10.50;87.10;;;;;;4941466;28;20459;-44
2021/12/29 01:49:10;;;;;;;0.60;0.60;;;10.50;87.00;;;;;;4942387;28;20940;-45
2021/12/29 01:51:42;;;;;;;1.43;0.70;;;10.50;86.60;;;;;;4941583;28;21259;-44
2021/12/29 01:54:15;;;;;;;0.60;0.60;;;10.50;86.60;;;;;;4942564;28;20934;-44
2021/12/29 01:56:45;;;;;;;3.13;0.70;;;10.50;86.80;;;;;;4943398;28;20477;-44
2021/12/29 01:59:13;;;;;;;1.23;0.70;;;10.50;86.90;;;;;;4944404;28;21000;-44
2021/12/29 02:01:41;;;;;;;0.60;0.60;;;10.50;86.60;;;;;;4945117;28;20466;-45
2021/12/29 02:04:09;;;;;;;1.33;0.70;;;10.40;86.70;;;;;;4955206;28;20468;-45
2021/12/29 02:06:36;;;;;;;0.87;0.50;;;10.50;86.80;;;;;;4940050;28;20474;-44
2021/12/29 02:09:05;;;;;;;0.83;0.60;;;10.50;86.40;;;;;;4941288;28;20474;-44
2021/12/29 02:11:37;;;;;;;0.90;0.73;;;10.50;86.30;;;;;;4941305;28;20505;-44
2021/12/29 02:14:06;;;;;;;0.90;0.60;;;10.60;86.20;;;;;;4948044;28;20468;-45
2021/12/29 02:16:34;;;;;;;0.60;0.60;;;10.50;86.40;;;;;;4941605;28;20462;-44
2021/12/29 02:19:04;;;;;;;0.73;0.70;;;10.50;87.30;;;;;;4940738;28;21068;-45
2021/12/29 02:21:32;;;;;;;0.93;0.80;;;10.50;87.20;;;;;;4938592;28;20494;-45
2021/12/29 02:26:29;;;;;;;0.60;0.60;;;10.50;87.60;;;;;;4941662;28;20986;-45
2021/12/29 02:28:57;;;;;;;2.03;1.17;;;10.50;87.40;;;;;;4938985;28;20506;-45
2021/12/29 02:31:24;;;;;;;1.17;0.70;;;10.40;87.70;;;;;;4956720;28;20471;-44
2021/12/29 02:33:52;;;;;;;2.70;0.90;;;10.50;87.20;;;;;;4958595;28;20529;-44
2021/12/29 02:36:19;;;;;;;1.23;0.70;;;10.50;86.80;;;;;;4942310;28;20865;-45
2021/12/29 02:38:52;;;;;;;1.20;0.67;;;10.50;86.80;;;;;;4940550;28;20969;-44
2021/12/29 02:41:20;;;;;;;0.60;0.50;;;10.50;86.10;;;;;;4942958;28;20487;-44
2021/12/29 02:43:48;;;;;;;0.70;0.60;;;10.50;85.50;;;;;;4942542;28;20478;-44
2021/12/29 02:46:16;;;;;;;2.03;0.40;;;10.50;85.70;;;;;;4937985;28;20899;-45
2021/12/29 02:48:52;;;;;;;0.60;0.60;;;10.50;85.60;;;;;;4938804;28;20478;-44
2021/12/29 02:51:19;;;;;;;1.37;0.77;;;10.60;85.40;;;;;;4939869;28;20463;-45
2021/12/29 02:53:46;;;;;;;1.17;0.70;;;10.60;85.40;;;;;;4924256;28;20482;-45
2021/12/29 02:56:13;;;;;;;0.67;0.40;;;10.60;85.40;;;;;;4942338;28;20485;-44
2021/12/29 02:58:40;;;;;;;0.60;0.47;;;10.60;85.40;;;;;;4941390;28;20770;-45
2021/12/29 03:01:10;;;;;;;1.63;0.50;;;10.60;85.30;;;;;;4941399;28;20525;-45
2021/12/29 03:03:37;;;;;;;0.80;0.50;;;10.60;85.20;;;;;;4939306;28;20459;-45
2021/12/29 03:06:05;;;;;;;0.73;0.73;;;10.60;85.00;;;;;;4939758;28;20895;-44
2021/12/29 03:08:33;;;;;;;1.47;0.70;;;10.60;85.30;;;;;;4938459;28;21011;-44
2021/12/29 03:11:00;;;;;;;1.30;0.40;;;10.60;85.50;;;;;;4944204;28;21098;-45
2021/12/29 03:13:29;;;;;;;0.60;0.50;;;10.60;85.60;;;;;;4954196;28;20463;-45
2021/12/29 03:15:56;;;;;;;0.80;0.50;;;10.60;85.70;;;;;;4921238;28;20859;-44
2021/12/29 03:18:23;;;;;;;1.57;0.63;;;10.60;85.90;;;;;;4940446;28;20498;-44
2021/12/29 03:20:51;;;;;;;0.70;0.67;;;10.60;86.00;;;;;;4938736;28;20490;-44
2021/12/29 03:23:19;;;;;;;0.87;0.60;;;10.60;86.10;;;;;;4940774;28;20487;-44
2021/12/29 03:25:49;;;;;;;1.13;0.80;;;10.60;86.10;;;;;;4944935;28;20557;-44
2021/12/29 03:28:17;;;;;;;2.87;1.03;;;10.60;86.10;;;;;;4946149;28;20851;-44
2021/12/29 03:30:48;;;;;;;0.60;0.50;;;10.60;85.80;;;;;;4943298;28;20469;-45
2021/12/29 03:33:15;;;;;;;0.67;0.50;;;10.60;85.60;;;;;;4944546;28;20546;-45
2021/12/29 03:35:44;;;;;;;0.50;0.50;;;10.50;85.80;;;;;;4944907;28;20481;-45
2021/12/29 03:38:19;;;;;;;0.93;0.60;;;10.50;86.30;;;;;;4945091;28;20553;-44
2021/12/29 03:40:46;;;;;;;0.73;0.70;;;10.50;86.40;;;;;;4945294;28;20500;-44
2021/12/29 03:43:14;;;;;;;1.73;0.63;;;10.50;86.60;;;;;;4944657;28;20546;-44
2021/12/29 03:45:44;;;;;;;2.03;0.60;;;10.50;86.80;;;;;;4941601;28;20462;-44
2021/12/29 03:48:12;;;;;;;0.70;0.70;;;10.50;87.20;;;;;;4946286;28;20574;-44
2021/12/29 03:50:40;;;;;;;2.30;1.03;;;10.40;87.70;;;;;;4955429;28;20471;-44
2021/12/29 03:53:08;;;;;;;1.73;1.20;;;10.40;88.20;;;;;;4960028;28;20475;-44
2021/12/29 03:55:35;;;;;;;0.90;0.90;;;10.40;88.50;;;;;;4946441;28;20473;-44
2021/12/29 03:58:02;;;;;;;0.80;0.80;;;10.40;88.60;;;;;;4944034;28;20467;-43
2021/12/29 04:00:29;;;;;;;1.50;0.80;;;10.30;88.60;;;;;;4944035;28;20487;-42
2021/12/29 04:02:56;;;;;;;2.47;0.80;;;10.30;88.70;;;;;;4945268;28;20673;-42
2021/12/29 04:05:23;;;;;;;2.87;0.70;;;10.20;88.60;;;;;;4942004;28;21650;-43
2021/12/29 04:07:56;;;;;;;0.50;0.50;;;10.20;88.50;;;;;;4943022;28;20478;-43
2021/12/29 04:10:23;;;;;;;1.00;1.00;;;10.20;88.60;;;;;;4943669;28;21000;-43
2021/12/29 04:12:50;;;;;;;1.70;0.97;;;10.20;88.00;;;;;;4944935;28;20471;-43
2021/12/29 04:15:18;;;;;;;1.13;1.07;;;10.20;87.90;;;;;;4943460;28;20471;-43
2021/12/29 04:17:46;;;;;;;0.97;0.80;;;10.20;88.00;;;;;;4943447;28;20470;-43
2021/12/29 04:23:04;;;;;;;0.90;0.67;;;10.20;86.80;;;;;;4957405;28;21093;-43
2021/12/29 04:25:34;;;;;;;0.83;0.83;;;10.20;85.90;;;;;;4941594;28;20467;-43
2021/12/29 04:28:04;;;;;;;0.50;0.50;;;10.20;85.80;;;;;;4956949;28;20477;-43
2021/12/29 04:30:32;;;;;;;1.07;0.63;;;10.20;85.00;;;;;;4943790;28;20843;-43
2021/12/29 04:32:58;;;;;;;0.53;0.53;;;10.20;85.00;;;;;;4944621;28;20554;-43
2021/12/29 04:35:26;;;;;;;1.20;1.10;;;10.20;84.70;;;;;;4942074;28;21027;-43
2021/12/29 04:37:54;;;;;;;1.33;0.97;;;10.20;84.90;;;;;;4943281;28;22561;-43
2021/12/29 04:40:22;;;;;;;1.27;0.80;;;10.20;84.70;;;;;;4947569;28;20490;-43
2021/12/29 04:42:49;;;;;;;0.80;0.80;;;10.20;84.70;;;;;;4952989;28;20465;-43
2021/12/29 04:45:17;;;;;;;1.10;1.00;;;10.20;85.00;;;;;;4942680;28;20466;-43
2021/12/29 04:47:46;;;;;;;1.30;1.10;;;10.20;85.00;;;;;;4956324;28;20503;-43
2021/12/29 04:51:05;;;;;;;2.30;2.10;;;10.20;85.00;;;;;;4945094;28;20474;-43
2021/12/29 04:53:08;;;;;;;2.17;1.10;;;10.20;85.10;;;;;;4937986;28;20467;-43
2021/12/29 04:55:34;;;;;;;0.80;0.80;;;10.20;84.70;;;;;;4945008;28;20495;-43
2021/12/29 04:58:02;;;;;;;0.80;0.80;;;10.30;84.50;;;;;;4941985;28;20832;-43
2021/12/29 05:00:31;;;;;;;1.20;1.00;;;10.20;84.80;;;;;;4955853;28;20512;-43
2021/12/29 05:02:59;;;;;;;0.90;0.90;;;10.30;85.10;;;;;;4943344;28;20468;-42
2021/12/29 05:10:46;;;;;;;1.20;1.10;;;10.30;84.80;;;;;;4944806;28;20466;-43
2021/12/29 05:13:14;;;;;;;1.17;1.07;;;10.30;84.30;;;;;;4939086;28;20478;-43
2021/12/29 05:15:42;;;;;;;3.90;1.50;;;10.30;84.30;;;;;;4938832;28;21726;-44
2021/12/29 05:18:10;;;;;;;1.43;0.80;;;10.30;84.90;;;;;;4942816;28;20471;-43
2021/12/29 05:20:37;;;;;;;1.00;0.63;;;10.30;84.80;;;;;;4941975;28;20487;-43
2021/12/29 05:23:04;;;;;;;1.03;0.93;;;10.30;85.20;;;;;;4940556;28;20487;-44
2021/12/29 05:25:31;;;;;;;1.13;1.00;;;10.30;85.10;;;;;;4942263;28;20812;-44
2021/12/29 05:27:58;;;;;;;1.00;1.00;;;10.30;85.40;;;;;;4954788;28;20464;-43
2021/12/29 05:30:26;;;;;;;0.70;0.70;;;10.30;85.30;;;;;;4943780;28;20463;-43
2021/12/29 05:32:54;;;;;;;1.03;0.70;;;10.30;85.40;;;;;;4942864;28;20467;-43
2021/12/29 05:35:25;;;;;;;1.73;0.80;;;10.30;85.70;;;;;;4956590;28;21071;-43
2021/12/29 05:37:52;;;;;;;1.30;0.70;;;10.30;85.80;;;;;;4942202;28;20468;-43
2021/12/29 05:40:19;;;;;;;1.40;0.60;;;10.30;86.20;;;;;;4944707;28;20454;-43
2021/12/29 05:42:46;;;;;;;1.10;0.70;;;10.30;86.30;;;;;;4942981;28;20808;-43
2021/12/29 05:45:14;;;;;;;0.40;0.40;;;10.30;86.70;;;;;;4943913;28;20482;-43
2021/12/29 05:47:41;;;;;;;0.60;0.40;;;10.30;86.90;;;;;;4955837;28;20467;-44
2021/12/29 05:50:11;;;;;;;1.63;0.50;;;10.20;87.20;;;;;;4941075;28;20455;-44
2021/12/29 05:52:38;;;;;;;0.60;0.40;;;10.20;87.60;;;;;;4942859;28;20478;-43
2021/12/29 05:55:06;;;;;;;1.83;0.70;;;10.20;87.90;;;;;;4942123;28;20463;-43
2021/12/29 05:57:33;;;;;;;1.40;0.70;;;10.20;88.10;;;;;;4940914;28;20957;-43
2021/12/29 06:00:01;;;;;;;1.43;1.33;;;10.20;88.30;;;;;;4942710;28;20860;-43
2021/12/29 06:02:27;;;;;;;1.33;0.70;;;10.20;88.70;;;;;;4943576;28;20494;-43
2021/12/29 06:04:55;;;;;;;1.27;1.17;;;10.20;88.80;;;;;;4938648;28;20965;-43
2021/12/29 06:07:21;;;;;;;0.70;0.53;;;10.20;89.10;;;;;;4943353;28;20486;-44
2021/12/29 06:09:48;;;;;;;0.77;0.73;;;10.20;89.20;;;;;;4941531;28;20459;-44
2021/12/29 06:12:15;;;;;;;1.43;0.50;;;10.10;89.40;;;;;;4956773;28;21012;-44
2021/12/29 06:14:44;;;;;;;3.03;0.80;;;10.10;89.70;;;;;;4943116;28;20463;-44
2021/12/29 06:17:11;;;;;;;1.20;0.77;;;10.10;89.60;;;;;;4942548;28;21093;-43
2021/12/29 06:19:40;;;;;;;1.23;0.60;;;10.10;89.60;;;;;;4941630;28;20471;-44
2021/12/29 06:22:11;;;;;;;1.23;0.70;;;10.10;89.60;;;;;;4941507;28;20499;-44
2021/12/29 06:24:39;;;;;;;0.67;0.50;;;10.10;89.70;;;;;;4956993;28;20466;-43
2021/12/29 06:27:07;;;;;;;1.37;0.73;;;10.00;89.70;;;;;;4943590;28;20462;-43
2021/12/29 06:29:35;;;;;;;1.37;0.80;;;10.00;89.70;;;;;;4940886;28;20812;-44
2021/12/29 06:32:03;;;;;;;0.53;0.53;;;10.00;89.70;;;;;;4940001;28;20463;-43
2021/12/29 06:34:30;;;;;;;0.80;0.60;;;10.00;89.60;;;;;;4956286;28;20478;-44
2021/12/29 06:37:02;;;;;;;0.90;0.70;;;10.00;89.70;;;;;;4941434;28;20534;-43
2021/12/29 06:39:29;;;;;;;0.80;0.80;;;10.00;89.70;;;;;;4941058;28;20561;-43
2021/12/29 06:41:56;;;;;;;1.73;1.10;;;10.00;89.80;;;;;;4942375;28;20525;-43
2021/12/29 06:44:23;;;;;;;1.50;1.17;;;9.90;89.80;;;;;;4941069;28;20485;-43
2021/12/29 06:46:49;;;;;;;3.90;1.43;;;9.90;89.80;;;;;;4940601;28;20463;-43
2021/12/29 06:49:16;;;;;;;2.13;1.40;;;9.90;89.80;;;;;;4941697;28;20471;-44
2021/12/29 06:51:43;;;;;;;2.10;1.23;;;9.90;89.80;;;;;;4941108;28;20493;-44
2021/12/29 06:54:10;;;;;;;2.10;1.20;;;9.90;89.80;;;;;;4943549;28;20470;-43
2021/12/29 06:56:37;;;;;;;1.40;1.30;;;9.90;89.80;;;;;;4942741;28;20587;-43
2021/12/29 06:59:03;;;;;;;1.93;1.33;;;9.90;89.80;;;;;;4956362;28;20460;-43
2021/12/29 07:01:30;;;;;;;3.20;1.70;;;10.00;89.70;;;;;;4941385;28;22310;-43
2021/12/29 07:03:58;;;;;;;1.50;1.40;;;10.00;89.60;;;;;;4956100;28;20546;-44
2021/12/29 07:06:26;;;;;;;2.40;1.20;;;10.00;89.30;;;;;;4953548;28;20549;-43
2021/12/29 07:08:53;;;;;;;2.60;1.63;;;10.00;89.00;;;;;;4942069;28;21218;-43
2021/12/29 07:11:20;;;;;;;2.60;2.20;;;10.00;88.80;;;;;;4943403;28;20554;-45
2021/12/29 07:13:47;;;;;;;1.17;1.07;;;10.00;89.10;;;;;;4939896;28;20471;-45
2021/12/29 07:16:14;;;;;;;1.60;1.50;;;9.90;88.90;;;;;;4955458;28;20475;-46
2021/12/29 07:18:41;;;;;;;3.97;1.60;;;9.90;88.70;;;;;;4953415;28;20476;-45
2021/12/29 07:21:08;;;;;;;3.80;1.50;;;9.90;88.50;;;;;;4941566;28;20523;-45
2021/12/29 07:23:34;;;;;;;2.40;2.10;;;9.90;88.60;;;;;;4948356;28;20479;-45
2021/12/29 07:26:02;;;;;;;2.13;1.90;;;9.90;88.60;;;;;;4946818;28;21054;-45
2021/12/29 07:28:28;;;;;;;1.70;1.60;;;9.90;88.60;;;;;;4963496;28;20493;-45
2021/12/29 07:30:55;;;;;;;2.07;1.60;;;10.00;88.50;;;;;;4952048;28;20500;-45
2021/12/29 07:33:22;;;;;;;1.97;1.80;;;9.90;88.40;;;;;;4949159;28;20835;-45
2021/12/29 07:35:49;;;;;;;2.50;1.80;;;9.90;88.40;;;;;;4944607;28;20459;-45
2021/12/29 07:38:15;;;;;;;1.80;1.20;;;9.90;88.40;;;;;;4946948;28;20840;-45
2021/12/29 07:40:42;;;;;;;1.70;1.40;;;9.90;88.40;;;;;;4947580;28;20609;-45
2021/12/29 07:43:09;;;;;;;1.37;1.27;;;9.90;88.30;;;;;;4944327;28;20501;-45
2021/12/29 07:45:36;;;;;;;3.40;1.20;;;10.00;88.10;;;;;;4950653;28;20451;-46
2021/12/29 07:48:05;;;;;;;1.50;1.40;;;10.00;87.80;;;;;;4963166;28;20486;-45
2021/12/29 07:50:32;;;;;;;2.47;2.00;;;10.10;87.50;;;;;;4946913;28;20471;-45
2021/12/29 07:52:58;;;;;;;2.43;2.23;;;10.00;87.70;;;;;;4946623;28;20534;-46
2021/12/29 07:55:26;;;;;;;7.00;3.13;;;10.00;87.90;;;;;;4955515;28;20579;-45
2021/12/29 07:57:53;;;;;;;5.20;3.83;;;10.00;87.80;;;;;;4947613;28;20459;-45
2021/12/29 08:00:19;;;;;;;3.70;2.60;;;10.00;88.00;;;;;;4945098;28;20455;-45
2021/12/29 08:02:47;;;;;;;2.57;2.27;;;10.00;87.50;;;;;;4948556;28;20499;-45
2021/12/29 08:05:14;;;;;;;2.80;1.97;;;10.10;87.30;;;;;;4946853;28;20493;-45
2021/12/29 08:07:46;;;;;;;2.00;1.90;;;10.10;87.10;;;;;;4949044;28;20467;-45
2021/12/29 08:10:13;;;;;;;4.67;2.17;;;10.10;87.10;;;;;;4952964;28;20458;-45
2021/12/29 08:12:40;;;;;;;2.20;2.00;;;10.10;87.30;;;;;;4933275;28;20468;-45
2021/12/29 08:15:07;;;;;;;2.57;2.10;;;10.10;87.40;;;;;;4965532;28;20549;-45
2021/12/29 08:17:35;;;;;;;3.70;1.47;;;10.00;87.50;;;;;;4964468;28;20549;-45
2021/12/29 08:20:04;;;;;;;2.50;1.77;;;10.00;87.80;;;;;;4947429;28;20462;-45
2021/12/29 08:22:31;;;;;;;2.43;2.23;;;10.10;87.50;;;;;;4946492;28;20978;-45
2021/12/29 08:24:59;;;;;;;1.73;1.30;;;10.00;87.70;;;;;;4954418;28;20825;-45
2021/12/29 08:27:25;;;;;;;1.90;1.70;;;10.10;87.50;;;;;;4956660;28;20460;-45
2021/12/29 08:29:52;;;;;;;2.53;2.00;;;10.10;87.10;;;;;;4938279;28;20454;-45
2021/12/29 08:32:20;;;;;;;6.33;1.63;;;10.10;87.20;;;;;;4967764;28;20484;-45
2021/12/29 08:34:47;;;;;;;1.57;1.27;;;10.10;87.30;;;;;;4967083;28;20944;-45
2021/12/29 08:37:16;;;;;;;1.50;1.40;;;10.10;87.20;;;;;;4949731;28;20844;-45
2021/12/29 08:39:43;;;;;;;2.00;1.40;;;10.10;87.10;;;;;;4954503;28;20491;-45
2021/12/29 08:42:11;;;;;;;3.60;1.40;;;10.10;86.80;;;;;;4954441;28;20495;-45
2021/12/29 08:44:42;;;;;;;4.70;1.80;;;10.10;86.80;;;;;;4952211;28;20553;-45
2021/12/29 08:47:10;;;;;;;1.70;1.60;;;10.10;86.70;;;;;;4949165;28;20458;-45
2021/12/29 08:49:37;;;;;;;4.83;1.93;;;10.10;86.60;;;;;;4947466;28;20462;-45
2021/12/29 08:52:05;;;;;;;1.90;1.20;;;10.10;86.80;;;;;;4946904;28;20950;-45
2021/12/29 08:54:32;;;;;;;2.20;1.50;;;10.10;86.70;;;;;;4948713;28;20463;-45
2021/12/29 08:56:59;;;;;;;3.10;1.40;;;10.10;86.50;;;;;;4951869;28;20489;-45
2021/12/29 08:59:25;;;;;;;1.23;1.10;;;10.20;86.40;;;;;;4966729;28;20461;-45
2021/12/29 09:01:52;;;;;;;0.97;0.87;;;10.20;86.50;;;;;;4945512;28;20505;-45
2021/12/29 09:04:20;;;;;;;1.50;1.40;;;10.20;86.60;;;;;;4951261;28;20542;-45
2021/12/29 09:06:46;;;;;;;3.90;1.40;;;10.20;86.60;;;;;;4954112;28;20543;-44
2021/12/29 09:09:14;;;;;;;2.10;1.50;;;10.20;86.00;;;;;;4951056;28;20451;-45
2021/12/29 09:11:41;;;;;;;4.77;1.50;;;10.30;85.90;;;;;;4953687;28;20896;-45
2021/12/29 09:14:08;;;;;;;2.30;1.67;;;10.30;86.00;;;;;;4954390;28;20455;-45
2021/12/29 09:16:35;;;;;;;1.90;1.30;;;10.30;85.70;;;;;;4963788;28;20467;-45
2021/12/29 09:19:03;;;;;;;1.60;1.30;;;10.40;85.70;;;;;;4951158;28;20471;-45
2021/12/29 09:21:33;;;;;;;2.63;1.40;;;10.40;85.60;;;;;;4965365;28;20968;-45
2021/12/29 09:24:00;;;;;;;5.83;1.30;;;10.40;85.10;;;;;;4948497;28;21023;-45
2021/12/29 09:26:27;;;;;;;2.33;1.43;;;10.40;85.10;;;;;;4952970;28;20917;-45
2021/12/29 09:28:54;;;;;;;1.83;1.30;;;10.50;84.70;;;;;;4950868;28;20447;-45
2021/12/29 09:31:21;;;;;;;6.10;1.90;;;10.50;85.00;;;;;;4951549;28;20451;-45
2021/12/29 09:33:48;;;;;;;1.83;0.90;;;10.50;84.80;;;;;;4953940;28;20546;-45
2021/12/29 09:36:15;;;;;;;2.33;0.90;;;10.50;84.90;;;;;;4962979;28;20463;-45
2021/12/29 09:38:42;;;;;;;1.70;1.17;;;10.50;84.40;;;;;;4954700;28;20950;-45
2021/12/29 09:41:13;;;;;;;8.77;4.23;;;10.60;84.70;;;;;;4967304;28;20455;-45
2021/12/29 09:43:41;;;;;;;3.97;2.00;;;10.60;84.60;;;;;;4950780;28;20486;-45
2021/12/29 09:46:08;;;;;;;1.90;1.30;;;10.60;84.40;;;;;;4948603;28;20556;-45
2021/12/29 09:48:36;;;;;;;2.63;1.07;;;10.60;84.00;;;;;;4948845;28;20953;-45
2021/12/29 09:51:06;;;;;;;2.60;1.50;;;10.70;83.60;;;;;;4952500;28;20562;-45
2021/12/29 09:53:34;;;;;;;2.90;1.43;;;10.70;83.20;;;;;;4949172;28;20473;-45
2021/12/29 09:56:07;;;;;;;1.30;1.13;;;10.70;83.30;;;;;;4955320;28;20455;-45
2021/12/29 09:58:33;;;;;;;2.40;1.50;;;10.70;82.70;;;;;;4950874;28;20455;-45
2021/12/29 10:01:04;;;;;;;2.83;0.90;;;10.70;82.70;;;;;;4965356;28;20486;-45
2021/12/29 10:03:33;;;;;;;2.10;1.27;;;10.80;82.50;;;;;;4951058;28;20521;-45
2021/12/29 10:06:05;;;;;;;2.67;1.30;;;10.80;82.20;;;;;;4953397;28;20454;-46
2021/12/29 10:08:35;;;;;;;1.60;1.30;;;10.80;82.30;;;;;;4942184;28;20936;-46
2021/12/29 10:11:09;;;;;;;1.20;1.10;;;10.80;82.20;;;;;;4948267;28;20470;-46
2021/12/29 10:13:38;;;;;;;2.13;0.90;;;10.80;82.30;;;;;;4954169;28;20834;-46
2021/12/29 10:16:14;;;;;;;2.00;1.17;;;10.80;82.00;;;;;;4950371;28;20585;-46
2021/12/29 10:18:43;;;;;;;1.80;1.43;;;10.80;81.70;;;;;;4953237;28;21159;-46
2021/12/29 10:21:22;;;;;;;2.23;1.60;;;10.90;81.10;;;;;;4946952;28;20455;-46
2021/12/29 10:23:52;;;;;;;1.73;1.20;;;10.90;81.80;;;;;;4948988;28;20577;-46
2021/12/29 10:26:44;;;;;;;1.43;1.00;;;10.90;82.00;;;;;;4949684;28;20554;-46
2021/12/29 10:29:14;;;;;;;4.60;1.13;;;10.90;81.20;;;;;;4948039;28;20481;-46
2021/12/29 10:31:56;;;;;;;6.93;3.90;;;11.00;81.10;;;;;;4964504;28;20447;-47
2021/12/29 10:34:26;;;;;;;6.73;2.43;;;11.00;81.30;;;;;;4938817;28;20451;-46
2021/12/29 10:36:58;;;;;;;3.87;1.47;;;11.00;81.30;;;;;;4968864;28;20465;-47
2021/12/29 10:39:48;;;;;;;2.03;1.40;;;11.00;80.80;;;;;;4951744;28;20481;-47
2021/12/29 10:42:18;;;;;;;2.50;1.10;;;11.00;80.50;;;;;;4941447;28;20494;-46
2021/12/29 10:44:48;;;;;;;2.43;1.23;;;11.00;80.50;;;;;;4950024;28;20978;-47
2021/12/29 10:47:24;;;;;;;2.47;1.20;;;11.00;80.20;;;;;;4971136;28;20451;-46
2021/12/29 10:50:04;;;;;;;1.20;1.10;;;11.00;80.10;;;;;;4952059;28;20497;-46
2021/12/29 10:52:44;;;;;;;1.63;1.40;;;11.00;80.10;;;;;;4937775;28;20493;-46
2021/12/29 10:55:31;;;;;;;2.70;1.17;;;11.10;80.00;;;;;;4946717;28;20804;-46
2021/12/29 10:58:11;;;;;;;5.10;1.30;;;11.10;80.40;;;;;;4951895;28;20837;-46
2021/12/29 11:00:57;;;;;;;3.40;1.03;;;11.10;79.80;;;;;;4968879;28;20520;-46
2021/12/29 11:03:27;;;;;;;1.90;0.93;;;11.10;79.60;;;;;;4950666;28;20581;-46
2021/12/29 11:05:58;;;;;;;2.67;1.30;;;11.00;80.00;;;;;;4929959;29;20827;-46
2021/12/29 11:08:44;;;;;;;2.40;1.17;;;11.00;80.30;;;;;;4948542;28;20454;-46
2021/12/29 11:11:11;;;;;;;2.53;1.10;;;11.00;79.40;;;;;;4965361;28;20470;-45
2021/12/29 11:13:38;;;;;;;2.20;1.17;;;11.10;79.10;;;;;;4966072;28;20459;-46
2021/12/29 11:16:05;;;;;;;4.63;1.40;;;11.00;79.70;;;;;;4947492;28;20971;-45
2021/12/29 11:19:00;;;;;;;1.27;1.10;;;11.00;79.90;;;;;;4963758;28;20509;-46
2021/12/29 11:21:31;;;;;;;4.03;1.20;;;11.00;79.80;;;;;;4946225;28;20475;-45
2021/12/29 11:24:15;;;;;;;4.10;1.20;;;11.10;79.40;;;;;;4953241;28;20490;-46
2021/12/29 11:27:15;;;;;;;4.03;1.57;;;11.10;79.80;;;;;;4952677;28;20448;-47
2021/12/29 11:29:59;;;;;;;3.60;1.73;;;11.10;78.60;;;;;;4950125;28;20474;-47
2021/12/29 11:32:46;;;;;;;2.53;1.77;;;11.10;78.70;;;;;;4945636;28;20485;-46
2021/12/29 11:35:20;;;;;;;5.30;1.53;;;11.10;79.30;;;;;;4943314;28;20972;-45
2021/12/29 11:37:52;;;;;;;3.30;1.30;;;11.10;79.70;;;;;;4947403;28;20469;-46
2021/12/29 11:40:24;;;;;;;6.73;1.27;;;11.10;78.90;;;;;;4950239;28;20462;-46
2021/12/29 11:42:52;;;;;;;3.00;1.90;;;11.00;79.30;;;;;;4947364;28;20487;-46
2021/12/29 11:45:20;;;;;;;3.60;1.20;;;11.10;79.00;;;;;;4951212;28;20455;-46
2021/12/29 11:47:49;;;;;;;5.37;1.37;;;11.10;79.20;;;;;;4968882;28;20513;-46
2021/12/29 11:50:25;;;;;;;1.40;1.30;;;11.10;79.00;;;;;;4953093;28;20470;-45
2021/12/29 11:53:23;;;;;;;8.67;5.70;;;11.20;78.60;;;;;;4954341;28;20553;-46
2021/12/29 11:55:56;;;;;;;15.10;8.67;;;11.10;79.20;;;;;;4967447;28;20965;-45
2021/12/29 11:58:28;;;;;;;5.00;3.20;;;11.10;79.40;;;;;;4955732;28;20833;-45
2021/12/29 12:01:23;;;;;;;2.97;2.33;;;11.20;79.00;;;;;;4952832;28;20970;-45
2021/12/29 12:03:55;;;;;;;5.43;1.50;;;11.20;79.60;;;;;;4946451;28;21083;-45
2021/12/29 12:06:40;;;;;;;5.80;1.97;;;11.20;79.40;;;;;;4952417;28;21014;-45
2021/12/29 12:09:16;;;;;;;2.53;1.77;;;11.20;79.60;;;;;;4937244;28;20462;-45
2021/12/29 12:11:48;;;;;;;4.97;1.97;;;11.20;79.40;;;;;;4960877;28;20453;-45
2021/12/29 12:14:22;;;;;;;1.73;1.63;;;11.30;79.70;;;;;;4952741;28;20470;-45
2021/12/29 12:16:54;;;;;;;4.00;1.90;;;11.20;80.00;;;;;;4955770;28;20986;-46
2021/12/29 12:19:23;;;;;;;2.33;1.63;;;11.20;80.60;;;;;;4955694;28;20538;-45
2021/12/29 12:22:10;;;;;;;3.10;1.53;;;11.30;79.80;;;;;;4955000;28;20562;-45
2021/12/29 12:24:42;;;;;;;1.90;1.60;;;11.30;79.90;;;;;;4952112;28;20819;-45
2021/12/29 12:27:23;;;;;;;2.20;2.00;;;11.40;79.70;;;;;;4955525;28;20557;-45
2021/12/29 12:30:06;;;;;;;3.30;1.97;;;11.40;80.30;;;;;;4950217;28;20493;-45
2021/12/29 12:32:46;;;;;;;2.17;1.93;;;11.40;80.00;;;;;;4955605;28;20518;-45
2021/12/29 12:35:27;;;;;;;4.33;1.80;;;11.40;80.00;;;;;;4952317;28;21074;-45
2021/12/29 12:37:55;;;;;;;3.37;2.10;;;11.30;80.50;;;;;;4951345;28;20467;-45
2021/12/29 12:40:27;;;;;;;3.37;1.90;;;11.30;80.90;;;;;;4954813;28;20459;-45
2021/12/29 12:43:06;;;;;;;2.17;1.70;;;11.30;81.20;;;;;;4954000;28;21018;-45
2021/12/29 12:45:39;;;;;;;13.77;8.57;;;11.30;81.30;;;;;;4949329;28;20923;-44
2021/12/29 12:48:11;;;;;;;7.83;3.60;;;11.30;81.20;;;;;;4949549;28;20467;-45
2021/12/29 12:50:42;;;;;;;15.90;7.40;;;11.30;81.00;;;;;;4955532;28;21026;-44
2021/12/29 12:53:10;;;;;;;5.93;2.97;;;11.40;81.30;;;;;;4943510;28;21012;-46
2021/12/29 12:55:46;;;;;;;4.87;2.20;;;11.40;81.80;;;;;;4951812;28;20802;-44
2021/12/29 12:58:14;;;;;;;6.53;1.97;;;11.40;81.50;;;;;;4946228;28;20471;-44
2021/12/29 13:00:51;;;;;;;2.10;1.60;;;11.40;81.30;;;;;;4950688;28;20842;-44
2021/12/29 13:03:21;;;;;;;4.20;1.90;;;11.40;81.60;;;;;;4951292;28;21190;-44
2021/12/29 13:05:52;;;;;;;1.93;1.47;;;11.40;81.70;;;;;;4950486;28;20455;-44
2021/12/29 13:08:35;;;;;;;2.27;2.10;;;11.40;82.10;;;;;;4959573;28;20473;-44
2021/12/29 13:11:15;;;;;;;4.87;2.23;;;11.40;82.10;;;;;;4958526;28;20877;-44